createdAt,value
2022-11-08T00:01:23.968Z,12.66
2022-11-08T00:03:53.106Z,12.64
2022-11-08T00:06:38.386Z,12.53
2022-11-08T00:09:23.879Z,12.45
2022-11-08T00:12:09.240Z,12.42
2022-11-08T00:14:37.097Z,12.30
2022-11-08T00:17:04.920Z,12.27
2022-11-08T00:19:34.073Z,12.25
2022-11-08T00:22:01.826Z,12.23
2022-11-08T00:24:29.647Z,12.17
2022-11-08T00:26:57.400Z,12.09
2022-11-08T00:29:25.273Z,12.08
2022-11-08T00:31:53.030Z,12.06
2022-11-08T00:34:20.824Z,12.02
2022-11-08T00:36:50.043Z,11.97
2022-11-08T00:39:17.798Z,11.94
2022-11-08T00:41:45.551Z,11.87
2022-11-08T00:44:13.666Z,11.80
2022-11-08T00:46:41.548Z,11.74
2022-11-08T00:49:09.468Z,11.70
2022-11-08T00:51:38.131Z,11.76
2022-11-08T00:54:08.346Z,11.73
2022-11-08T00:56:36.074Z,11.71
2022-11-08T00:59:03.820Z,11.70
2022-11-08T01:01:31.995Z,11.68
2022-11-08T01:04:00.134Z,11.67
2022-11-08T01:06:27.893Z,11.65
2022-11-08T01:08:56.729Z,11.60
2022-11-08T01:11:27.117Z,11.57
2022-11-08T01:13:58.260Z,11.54
2022-11-08T01:16:27.781Z,11.50
2022-11-08T01:18:57.237Z,11.51
2022-11-08T01:21:25.566Z,11.53
2022-11-08T01:23:54.192Z,11.39
2022-11-08T01:26:25.489Z,11.48
2022-11-08T01:28:53.373Z,11.44
2022-11-08T01:31:23.138Z,11.41
2022-11-08T01:33:52.013Z,11.41
2022-11-08T01:36:21.835Z,11.37
2022-11-08T01:38:49.487Z,11.33
2022-11-08T01:41:19.173Z,11.34
2022-11-08T01:43:49.243Z,11.30
2022-11-08T01:46:39.141Z,11.24
2022-11-08T01:49:35.456Z,11.17
2022-11-08T01:52:08.989Z,11.11
2022-11-08T01:54:42.790Z,11.13
2022-11-08T01:57:14.571Z,11.10
2022-11-08T01:59:45.714Z,11.07
2022-11-08T02:02:14.341Z,11.07
2022-11-08T02:04:44.210Z,11.06
2022-11-08T02:07:13.999Z,11.08
2022-11-08T02:09:44.531Z,11.05
2022-11-08T02:12:14.411Z,10.88
2022-11-08T02:14:43.341Z,11.03
2022-11-08T02:17:11.736Z,11.07
2022-11-08T02:19:42.914Z,11.11
2022-11-08T02:22:17.970Z,11.10
2022-11-08T02:24:47.370Z,11.09
2022-11-08T02:27:16.063Z,11.07
2022-11-08T02:29:43.735Z,11.09
2022-11-08T02:32:12.540Z,11.07
2022-11-08T02:34:43.209Z,11.05
2022-11-08T02:37:12.196Z,11.07
2022-11-08T02:39:39.718Z,11.07
2022-11-08T02:42:08.747Z,11.06
2022-11-08T02:44:36.313Z,11.09
2022-11-08T02:47:03.866Z,11.04
2022-11-08T02:49:31.450Z,11.04
2022-11-08T02:51:59.086Z,11.02
2022-11-08T02:54:26.640Z,10.95
2022-11-08T02:56:54.202Z,10.99
2022-11-08T02:59:23.108Z,10.98
2022-11-08T03:01:50.871Z,10.76
2022-11-08T03:04:18.594Z,11.00
2022-11-08T03:06:46.160Z,10.90
2022-11-08T03:09:13.839Z,10.89
2022-11-08T03:11:41.457Z,10.86
2022-11-08T03:14:09.048Z,10.80
2022-11-08T03:16:37.999Z,10.78
2022-11-08T03:19:05.601Z,10.79
2022-11-08T03:21:35.320Z,10.81
2022-11-08T03:24:02.883Z,10.77
2022-11-08T03:26:30.426Z,10.81
2022-11-08T03:28:57.989Z,10.75
2022-11-08T03:31:25.546Z,10.71
2022-11-08T03:33:54.556Z,10.70
2022-11-08T03:36:22.107Z,10.71
2022-11-08T03:38:50.741Z,10.72
2022-11-08T03:41:18.295Z,10.66
2022-11-08T03:43:45.832Z,10.61
2022-11-08T03:46:13.410Z,10.63
2022-11-08T03:48:40.953Z,10.58
2022-11-08T03:51:09.917Z,10.59
2022-11-08T03:53:37.494Z,10.54
2022-11-08T03:56:05.349Z,10.55
2022-11-08T03:58:32.976Z,10.55
2022-11-08T04:01:04.902Z,10.54
2022-11-08T04:03:32.952Z,10.47
2022-11-08T04:06:01.361Z,10.49
2022-11-08T04:08:30.611Z,10.50
2022-11-08T04:11:18.890Z,10.53
2022-11-08T04:14:04.077Z,10.54
2022-11-08T04:16:32.882Z,10.49
2022-11-08T04:19:19.096Z,10.54
2022-11-08T04:21:48.953Z,10.57
2022-11-08T04:24:18.423Z,10.58
2022-11-08T04:26:46.293Z,10.64
2022-11-08T04:29:14.057Z,10.63
2022-11-08T04:31:41.705Z,10.70
2022-11-08T04:34:09.407Z,10.74
2022-11-08T04:36:37.004Z,10.74
2022-11-08T04:39:04.991Z,10.75
2022-11-08T04:41:34.025Z,10.82
2022-11-08T04:44:01.671Z,10.86
2022-11-08T04:46:30.227Z,10.83
2022-11-08T04:48:59.458Z,10.67
2022-11-08T04:51:28.657Z,10.84
2022-11-08T04:53:57.543Z,10.77
2022-11-08T04:56:27.093Z,10.82
2022-11-08T04:58:57.919Z,10.81
2022-11-08T05:01:27.143Z,10.81
2022-11-08T05:03:55.704Z,10.80
2022-11-08T05:06:25.828Z,10.74
2022-11-08T05:08:55.221Z,10.73
2022-11-08T05:11:24.956Z,10.70
2022-11-08T05:13:53.405Z,10.71
2022-11-08T05:16:23.966Z,10.64
2022-11-08T05:18:51.569Z,10.74
2022-11-08T05:21:38.732Z,10.69
2022-11-08T05:24:08.332Z,10.65
2022-11-08T05:26:37.262Z,10.68
2022-11-08T05:29:04.885Z,10.57
2022-11-08T05:31:34.145Z,10.67
2022-11-08T05:34:02.021Z,10.75
2022-11-08T05:36:29.903Z,10.76
2022-11-08T05:38:58.090Z,10.75
2022-11-08T05:41:27.095Z,10.61
2022-11-08T05:43:56.468Z,10.72
2022-11-08T05:46:25.182Z,10.71
2022-11-08T05:48:54.415Z,10.64
2022-11-08T05:51:22.575Z,10.80
2022-11-08T05:53:50.219Z,10.73
2022-11-08T05:56:18.961Z,10.78
2022-11-08T05:58:46.467Z,10.76
2022-11-08T06:01:15.939Z,10.70
2022-11-08T06:03:44.105Z,10.66
2022-11-08T06:06:15.792Z,10.66
2022-11-08T06:08:48.983Z,10.67
2022-11-08T06:11:21.374Z,10.64
2022-11-08T06:13:48.997Z,10.66
2022-11-08T06:16:18.553Z,10.68
2022-11-08T06:18:46.960Z,10.66
2022-11-08T06:21:17.980Z,10.59
2022-11-08T06:23:45.573Z,10.55
2022-11-08T06:26:13.494Z,10.52
2022-11-08T06:28:41.105Z,10.53
2022-11-08T06:31:08.761Z,10.57
2022-11-08T06:33:36.758Z,10.58
2022-11-08T06:36:04.577Z,10.68
2022-11-08T06:38:33.579Z,10.73
2022-11-08T06:41:01.862Z,10.69
2022-11-08T06:43:29.566Z,10.60
2022-11-08T06:46:01.143Z,10.56
2022-11-08T06:48:33.995Z,10.59
2022-11-08T06:51:03.296Z,10.58
2022-11-08T06:53:30.889Z,10.59
2022-11-08T06:56:00.963Z,10.55
2022-11-08T06:58:28.561Z,10.57
2022-11-08T07:00:56.118Z,10.58
2022-11-08T07:03:23.943Z,10.58
2022-11-08T07:05:51.538Z,10.55
2022-11-08T07:08:23.705Z,10.55
2022-11-08T07:10:51.725Z,10.62
2022-11-08T07:13:21.651Z,10.57
2022-11-08T07:15:49.414Z,10.57
2022-11-08T07:18:19.385Z,10.59
2022-11-08T07:20:47.406Z,10.55
2022-11-08T07:23:15.294Z,10.50
2022-11-08T07:25:43.227Z,10.57
2022-11-08T07:28:20.320Z,10.59
2022-11-08T07:30:49.772Z,10.58
2022-11-08T07:33:18.095Z,10.66
2022-11-08T07:35:48.082Z,10.67
2022-11-08T07:38:15.884Z,10.68
2022-11-08T07:40:43.970Z,10.73
2022-11-08T07:43:22.815Z,10.86
2022-11-08T07:45:56.638Z,10.85
2022-11-08T07:48:24.665Z,10.78
2022-11-08T07:50:52.637Z,10.85
2022-11-08T07:53:20.797Z,10.88
2022-11-08T07:55:48.980Z,10.90
2022-11-08T07:58:17.376Z,10.93
2022-11-08T08:00:46.433Z,10.92
2022-11-08T08:03:15.595Z,10.96
2022-11-08T08:05:45.192Z,10.97
2022-11-08T08:08:14.466Z,10.96
2022-11-08T08:10:42.214Z,10.96
2022-11-08T08:13:10.119Z,11.01
2022-11-08T08:15:38.100Z,11.07
2022-11-08T08:18:07.065Z,11.07
2022-11-08T08:20:36.500Z,11.09
2022-11-08T08:23:04.031Z,11.17
2022-11-08T08:25:31.980Z,11.17
2022-11-08T08:28:01.771Z,11.24
2022-11-08T08:30:30.968Z,11.26
2022-11-08T08:33:28.361Z,11.32
2022-11-08T08:35:56.337Z,11.36
2022-11-08T08:38:23.970Z,11.39
2022-11-08T08:40:52.234Z,11.43
2022-11-08T08:43:20.565Z,11.46
2022-11-08T08:45:48.780Z,11.52
2022-11-08T08:48:16.440Z,11.54
2022-11-08T08:50:44.091Z,11.63
2022-11-08T08:53:13.682Z,11.64
2022-11-08T08:55:41.717Z,11.67
2022-11-08T08:58:09.705Z,11.77
2022-11-08T09:03:25.172Z,11.76
2022-11-08T09:05:52.735Z,11.81
2022-11-08T09:08:21.690Z,11.79
2022-11-08T09:10:54.200Z,11.79
2022-11-08T09:13:21.757Z,11.81
2022-11-08T09:15:49.350Z,11.83
2022-11-08T09:18:17.557Z,11.81
2022-11-08T09:20:45.446Z,11.82
2022-11-08T09:23:13.353Z,11.94
2022-11-08T09:25:42.271Z,12.01
2022-11-08T09:28:10.311Z,12.08
2022-11-08T09:30:38.028Z,12.15
2022-11-08T09:33:05.990Z,12.14
2022-11-08T09:35:34.108Z,12.20
2022-11-08T09:38:01.731Z,12.21
2022-11-08T09:40:33.560Z,12.21
2022-11-08T09:43:20.818Z,12.30
2022-11-08T09:45:50.673Z,12.36
2022-11-08T09:48:24.022Z,12.44
2022-11-08T09:50:53.633Z,12.54
2022-11-08T09:53:34.668Z,12.62
2022-11-08T09:56:08.173Z,12.73
2022-11-08T09:58:41.030Z,12.91
2022-11-08T10:01:11.715Z,12.97
2022-11-08T10:03:39.619Z,13.01
2022-11-08T10:06:27.194Z,12.94
2022-11-08T10:09:06.828Z,12.98
2022-11-08T10:11:54.765Z,13.02
2022-11-08T10:14:45.315Z,13.00
2022-11-08T10:17:35.772Z,13.06
2022-11-08T10:20:12.255Z,13.18
2022-11-08T10:22:47.661Z,13.31
2022-11-08T10:25:21.046Z,13.19
2022-11-08T10:27:48.602Z,13.19
2022-11-08T10:30:21.428Z,13.20
2022-11-08T10:32:53.893Z,13.19
2022-11-08T10:35:28.143Z,13.18
2022-11-08T10:37:57.108Z,13.13
2022-11-08T10:40:34.751Z,13.07
2022-11-08T10:43:09.819Z,13.08
2022-11-08T10:45:38.736Z,13.09
2022-11-08T10:48:07.223Z,13.07
2022-11-08T10:50:44.049Z,13.12
2022-11-08T10:53:18.890Z,13.13
2022-11-08T10:55:51.756Z,13.15
2022-11-08T10:58:37.225Z,13.20
2022-11-08T11:01:14.409Z,13.26
2022-11-08T11:03:42.623Z,13.39
2022-11-08T11:06:23.813Z,13.51
2022-11-08T11:08:55.089Z,13.52
2022-11-08T11:11:26.383Z,13.53
2022-11-08T11:14:10.002Z,13.64
2022-11-08T11:16:54.075Z,13.64
2022-11-08T11:19:22.010Z,13.68
2022-11-08T11:21:56.291Z,13.63
2022-11-08T11:24:24.250Z,13.61
2022-11-08T11:27:02.912Z,13.68
2022-11-08T11:29:31.552Z,13.77
2022-11-08T11:32:20.274Z,13.94
2022-11-08T11:34:55.939Z,13.97
2022-11-08T11:37:30.053Z,14.04
2022-11-08T11:40:12.940Z,14.12
2022-11-08T11:42:48.735Z,14.15
2022-11-08T11:45:25.346Z,14.11
2022-11-08T11:47:57.077Z,14.25
2022-11-08T11:50:35.978Z,14.19
2022-11-08T11:53:07.624Z,14.11
2022-11-08T11:55:52.422Z,14.26
2022-11-08T11:58:39.076Z,14.32
2022-11-08T12:01:16.738Z,14.20
2022-11-08T12:04:01.643Z,14.26
2022-11-08T12:06:40.097Z,14.13
2022-11-08T12:09:22.008Z,14.33
2022-11-08T12:11:59.785Z,14.32
2022-11-08T12:14:44.326Z,14.53
2022-11-08T12:17:35.885Z,14.49
2022-11-08T12:20:26.585Z,14.57
2022-11-08T12:23:11.047Z,14.62
2022-11-08T12:40:03.936Z,14.71
2022-11-08T12:42:53.145Z,14.58
2022-11-08T12:45:30.065Z,14.56
2022-11-08T12:48:05.027Z,14.66
2022-11-08T12:50:38.744Z,14.76
2022-11-08T12:53:30.282Z,14.79
2022-11-08T12:55:59.774Z,14.70
2022-11-08T12:58:34.738Z,14.72
2022-11-08T13:01:07.193Z,14.80
2022-11-08T13:04:05.802Z,14.83
2022-11-08T13:06:41.265Z,14.82
2022-11-08T13:09:18.731Z,14.70
2022-11-08T13:11:55.309Z,14.66
2022-11-08T13:14:24.637Z,14.63
2022-11-08T13:17:22.745Z,14.45
2022-11-08T13:20:03.432Z,14.58
2022-11-08T13:22:47.727Z,14.67
2022-11-08T13:25:43.441Z,14.60
2022-11-08T13:28:38.403Z,14.67
2022-11-08T13:31:17.054Z,14.53
2022-11-08T13:33:48.402Z,14.61
2022-11-08T13:36:28.392Z,14.60
2022-11-08T13:39:11.905Z,14.51
2022-11-08T13:42:02.647Z,14.57
2022-11-08T13:45:00.717Z,14.51
2022-11-08T13:47:53.244Z,14.55
2022-11-08T13:50:46.224Z,14.47
2022-11-08T13:53:45.725Z,14.48
2022-11-08T13:56:45.658Z,14.44
2022-11-08T13:59:52.210Z,14.35
2022-11-08T14:02:37.930Z,14.28
2022-11-08T14:05:27.711Z,14.32
2022-11-08T14:08:16.133Z,14.31
2022-11-08T14:11:07.599Z,14.29
2022-11-08T14:13:42.252Z,14.24
2022-11-08T14:16:17.354Z,14.27
2022-11-08T14:18:47.100Z,14.25
2022-11-08T14:21:18.656Z,14.21
2022-11-08T14:23:49.070Z,14.17
2022-11-08T14:26:22.261Z,14.18
2022-11-08T14:28:52.005Z,14.19
2022-11-08T14:31:26.008Z,14.16
2022-11-08T14:33:56.094Z,14.18
2022-11-08T14:36:25.891Z,14.18
2022-11-08T14:39:02.594Z,14.16
2022-11-08T14:41:32.717Z,14.23
2022-11-08T14:44:03.316Z,14.19
2022-11-08T14:46:33.609Z,14.17
2022-11-08T14:49:12.029Z,14.17
2022-11-08T14:51:40.238Z,14.11
2022-11-08T14:54:17.173Z,14.10
2022-11-08T14:56:45.106Z,14.12
2022-11-08T14:59:14.331Z,14.09
2022-11-08T15:01:44.863Z,14.09
2022-11-08T15:04:16.830Z,14.13
2022-11-08T15:06:46.250Z,14.13
2022-11-08T15:09:22.056Z,14.14
2022-11-08T15:11:53.866Z,14.20
2022-11-08T15:14:24.304Z,14.17
2022-11-08T15:16:58.545Z,14.14
2022-11-08T15:19:36.847Z,14.14
2022-11-08T15:22:25.391Z,14.13
2022-11-08T15:25:01.356Z,13.94
2022-11-08T15:27:29.085Z,14.08
2022-11-08T15:30:02.118Z,14.08
2022-11-08T15:32:36.301Z,14.05
2022-11-08T15:35:07.132Z,14.03
2022-11-08T15:37:38.362Z,13.92
2022-11-08T15:40:08.263Z,13.91
2022-11-08T15:42:38.440Z,13.89
2022-11-08T15:45:23.069Z,13.80
2022-11-08T15:47:51.009Z,13.77
2022-11-08T15:50:21.667Z,13.74
2022-11-08T15:52:51.757Z,13.70
2022-11-08T15:55:21.396Z,13.67
2022-11-08T15:57:50.256Z,13.59
2022-11-08T16:00:22.163Z,13.66
2022-11-08T16:02:49.834Z,13.63
2022-11-08T16:05:21.254Z,13.58
2022-11-08T16:07:48.945Z,13.55
2022-11-08T16:10:19.036Z,13.49
2022-11-08T16:12:48.501Z,13.44
2022-11-08T16:15:17.819Z,13.39
2022-11-08T16:17:45.407Z,13.45
2022-11-08T16:20:24.973Z,13.42
2022-11-08T16:22:52.836Z,13.35
2022-11-08T16:25:20.417Z,13.38
2022-11-08T16:27:53.181Z,13.43
2022-11-08T16:30:21.221Z,13.45
2022-11-08T16:32:48.844Z,13.43
2022-11-08T16:35:16.871Z,13.37
2022-11-08T16:37:46.757Z,13.42
2022-11-08T16:40:19.207Z,13.41
2022-11-08T16:42:47.825Z,13.45
2022-11-08T16:45:17.017Z,13.45
2022-11-08T16:47:46.387Z,13.43
2022-11-08T16:50:17.349Z,13.38
2022-11-08T16:52:46.810Z,13.36
2022-11-08T16:55:17.708Z,13.31
2022-11-08T16:57:45.972Z,13.29
2022-11-08T17:00:15.960Z,13.23
2022-11-08T17:02:48.968Z,13.17
2022-11-08T17:05:19.377Z,13.23
2022-11-08T17:07:48.422Z,13.20
2022-11-08T17:10:17.425Z,13.26
2022-11-08T17:12:45.041Z,13.23
2022-11-08T17:15:14.173Z,13.24
2022-11-08T17:17:42.038Z,13.17
2022-11-08T17:20:12.495Z,13.13
2022-11-08T17:22:40.316Z,13.26
2022-11-08T17:25:11.565Z,13.19
2022-11-08T17:27:39.386Z,13.16
2022-11-08T17:30:08.449Z,13.10
2022-11-08T17:32:36.702Z,13.06
2022-11-08T17:35:05.246Z,13.11
2022-11-08T17:37:33.443Z,13.08
2022-11-08T17:40:02.056Z,13.07
2022-11-08T17:42:34.246Z,13.10
2022-11-08T17:45:05.560Z,13.11
2022-11-08T17:47:33.100Z,13.10
2022-11-08T17:50:00.719Z,13.07
2022-11-08T17:52:28.328Z,13.03
2022-11-08T17:54:55.930Z,13.04
2022-11-08T17:57:23.495Z,13.04
2022-11-08T17:59:52.472Z,13.03
2022-11-08T18:02:20.093Z,13.03
2022-11-08T18:04:47.841Z,13.02
2022-11-08T18:07:15.646Z,12.96
2022-11-08T18:09:43.274Z,13.07
2022-11-08T18:12:10.870Z,13.09
2022-11-08T18:14:38.820Z,13.15
2022-11-08T18:17:07.787Z,13.18
2022-11-08T18:19:35.610Z,13.08
2022-11-08T18:22:04.517Z,13.18
2022-11-08T18:24:32.113Z,12.97
2022-11-08T18:27:00.161Z,13.15
2022-11-08T18:29:28.257Z,13.14
2022-11-08T18:31:55.854Z,13.06
2022-11-08T18:34:24.906Z,13.04
2022-11-08T18:36:52.501Z,13.02
2022-11-08T18:39:20.209Z,13.03
2022-11-08T18:41:47.972Z,13.04
2022-11-08T18:44:15.517Z,13.02
2022-11-08T18:46:43.772Z,13.03
2022-11-08T18:49:11.689Z,13.01
2022-11-08T18:51:40.626Z,12.98
2022-11-08T18:54:08.228Z,12.97
2022-11-08T18:56:35.897Z,12.99
2022-11-08T18:59:03.525Z,12.99
2022-11-08T19:01:31.362Z,12.96
2022-11-08T19:03:58.927Z,12.94
2022-11-08T19:06:26.537Z,13.02
2022-11-08T19:08:57.464Z,13.08
2022-11-08T19:11:25.007Z,13.08
2022-11-08T19:13:52.563Z,12.89
2022-11-08T19:16:21.929Z,13.05
2022-11-08T19:18:49.988Z,13.05
2022-11-08T19:21:20.033Z,13.02
2022-11-08T19:23:48.254Z,12.93
2022-11-08T19:26:19.292Z,13.04
2022-11-08T19:28:47.868Z,12.95
2022-11-08T19:31:18.381Z,12.93
2022-11-08T19:33:46.797Z,12.95
2022-11-08T19:36:16.990Z,12.91
2022-11-08T19:38:45.210Z,12.88
2022-11-08T19:41:14.824Z,12.93
2022-11-08T19:43:44.640Z,12.84
2022-11-08T19:46:14.366Z,12.80
2022-11-08T19:48:43.860Z,12.81
2022-11-08T19:51:14.635Z,12.74
2022-11-08T19:53:42.684Z,12.76
2022-11-08T19:56:12.712Z,12.74
2022-11-08T19:58:40.429Z,12.70
2022-11-08T20:01:10.109Z,12.72
2022-11-08T20:03:38.089Z,12.76
2022-11-08T20:06:07.004Z,12.74
2022-11-08T20:08:35.012Z,12.66
2022-11-08T20:11:10.673Z,12.73
2022-11-08T20:13:38.319Z,12.70
2022-11-08T20:16:12.391Z,12.74
2022-11-08T20:18:40.222Z,12.71
2022-11-08T20:21:08.918Z,12.74
2022-11-08T20:23:36.537Z,12.75
2022-11-08T20:26:06.250Z,12.69
2022-11-08T20:28:35.890Z,12.77
2022-11-08T20:31:05.150Z,12.81
2022-11-08T20:33:35.920Z,12.88
2022-11-08T20:36:04.834Z,12.95
2022-11-08T20:38:33.195Z,12.81
2022-11-08T20:41:01.388Z,12.81
2022-11-08T20:43:29.144Z,12.76
2022-11-08T20:46:02.323Z,12.81
2022-11-08T20:48:30.351Z,12.81
2022-11-08T20:51:00.348Z,12.80
2022-11-08T20:53:28.818Z,12.77
2022-11-08T20:55:57.564Z,12.77
2022-11-08T20:58:25.774Z,12.81
2022-11-08T21:00:58.290Z,12.83
2022-11-08T21:03:27.516Z,12.85
2022-11-08T21:05:55.791Z,12.87
2022-11-08T21:11:14.012Z,12.82
2022-11-08T21:13:43.842Z,12.80
2022-11-08T21:16:29.285Z,12.79
2022-11-08T21:18:58.681Z,12.77
2022-11-08T21:21:27.167Z,12.86
2022-11-08T21:23:56.232Z,12.79
2022-11-08T21:26:24.112Z,12.80
2022-11-08T21:28:52.121Z,12.85
2022-11-08T21:31:19.836Z,12.87
2022-11-08T21:33:47.434Z,12.83
2022-11-08T21:36:17.214Z,12.84
2022-11-08T21:38:45.461Z,12.83
2022-11-08T21:41:14.521Z,12.81
2022-11-08T21:43:43.966Z,12.74
2022-11-08T21:46:19.459Z,12.72
2022-11-08T21:48:47.884Z,12.73
2022-11-08T21:51:16.421Z,12.72
2022-11-08T21:53:52.778Z,12.72
2022-11-08T21:56:24.234Z,12.62
2022-11-08T21:58:52.390Z,12.59
2022-11-08T22:01:24.122Z,12.66
2022-11-08T22:03:53.801Z,12.65
2022-11-08T22:06:21.623Z,12.63
2022-11-08T22:08:49.448Z,12.67
2022-11-08T22:11:17.116Z,12.64
2022-11-08T22:13:46.333Z,12.61
2022-11-08T22:16:14.014Z,12.56
2022-11-08T22:21:43.046Z,12.69
2022-11-08T22:24:12.672Z,12.72
2022-11-08T22:26:41.008Z,12.64
2022-11-08T22:29:10.288Z,12.67
2022-11-08T22:31:38.704Z,12.62
2022-11-08T22:34:08.263Z,12.64
2022-11-08T22:36:41.212Z,12.69
2022-11-08T22:39:12.947Z,12.56
2022-11-08T22:41:40.554Z,12.61
2022-11-08T22:44:11.724Z,12.57
2022-11-08T22:46:41.874Z,12.55
2022-11-08T22:49:09.717Z,12.61
2022-11-08T22:51:37.399Z,12.61
2022-11-08T22:54:05.324Z,12.52
2022-11-08T22:56:33.170Z,12.52
2022-11-08T22:59:00.841Z,12.56
2022-11-08T23:01:28.502Z,12.57
2022-11-08T23:03:57.449Z,12.61
2022-11-08T23:06:25.192Z,12.54
2022-11-08T23:08:52.859Z,12.64
2022-11-08T23:11:38.001Z,12.63
2022-11-08T23:14:23.301Z,12.64
2022-11-08T23:16:50.853Z,12.68
2022-11-08T23:19:48.139Z,12.70
2022-11-08T23:22:35.103Z,12.72
2022-11-08T23:25:02.783Z,12.79
2022-11-08T23:27:48.216Z,12.78
2022-11-08T23:30:35.399Z,12.87
2022-11-08T23:33:04.859Z,12.94
2022-11-08T23:35:34.041Z,12.98
2022-11-08T23:38:01.702Z,12.99
2022-11-08T23:40:47.238Z,13.08
2022-11-08T23:43:34.748Z,13.07
2022-11-08T23:46:06.534Z,13.11
2022-11-08T23:48:34.408Z,13.16
2022-11-08T23:51:03.462Z,13.16
2022-11-08T23:53:31.102Z,13.16
2022-11-08T23:55:58.636Z,13.17
2022-11-08T23:58:26.479Z,13.16
